ORNI

Al Najaf International Airport

Iraq
TAF ORNI 211600Z 2118/2218 32012KT 6000 NSC
Issued Valid From Valid To
Jan-21 @ 16:00 UTC
(8 hours ago)
Jan-21 @ 18:00 UTC
(6 hours ago)
Jan-22 @ 18:00 UTC
(in 18 hours)
Jan-21 @ 18:00 to Jan-22 @ 18:00
TAF ORNI 211600Z 2118/2218 32012KT 6000 NSC
Wind Visibility Clouds
320° at 12 knots 6,003 meters
  • No significant clouds
TAF ORNI 211600Z 2118/2218 32012KT 6000 NSC
Issued Jan-21 @ 16:00 UTC
(8 hours ago)
Valid From Jan-21 @ 18:00 UTC
(6 hours ago)
Valid To Jan-22 @ 18:00 UTC
(in 18 hours)
Jan-21 @ 18:00 - Jan-22 @ 18:00
Wind Visibility
320° at 12 knots 6,003 meters
Clouds
  • No significant clouds